RKTU/CHN METAR and TAF weather

Enter ICAO airport designator
Station Type Date Time Source
RKTU METAR 2022/01/25 04:00 UTC NOAA

RKTU 250400Z 11001KT 8000 -DZ BKN013 OVC030 03/02 Q1021


Station Type Date Time Source
RKTU Decoded METAR 2022/01/25 04:00 UTC NOAA

Chongju Ab, Korea, South (RKTU) 36-42N 127-30E 66M
Jan 24, 2022 - 11:00 PM EST / 2022.01.25 0400 UTC
Wind: from the ESE (110 degrees) at 1 MPH (1 KT):0
Visibility: 4 mile(s):0
Sky conditions: overcast
Weather: light drizzle
Temperature: 37 F (3 C)
Dew Point: 35 F (2 C)
Relative Humidity: 93%
Pressure (altimeter): 30.15 in. Hg (1021 hPa)
ob: RKTU 250400Z 11001KT 8000 -DZ BKN013 OVC030 03/02 Q1021
cycle: 4

Station Type Date Time Source
RKTU TAF 2022/01/25 03:35 UTC NOAA

TAF
AMD RKTU 250335Z 2503/2606 21006KT 6000 -RA BKN015 OVC030 TNM05/2521Z TX07/2605Z
BECMG 2509/2510 9999 NSW BKN015 BKN030
BECMG 2515/2516 SCT015 BKN030
BECMG 2523/2524 30006KT SCT030 SCT180

Example: see airport list